createdAt,value
2023-02-09T00:01:19.536Z,24.41
2023-02-09T00:03:45.975Z,24.40
2023-02-09T00:06:12.955Z,24.36
2023-02-09T00:08:39.287Z,24.35
2023-02-09T00:11:06.348Z,24.30
2023-02-09T00:13:32.672Z,24.32
2023-02-09T00:16:01.507Z,24.30
2023-02-09T00:18:28.648Z,24.25
2023-02-09T00:20:55.562Z,24.19
2023-02-09T00:23:21.897Z,24.17
2023-02-09T00:25:48.214Z,24.16
2023-02-09T00:28:14.582Z,24.13
2023-02-09T00:30:41.013Z,24.12
2023-02-09T00:33:07.380Z,24.08
2023-02-09T00:35:33.681Z,24.06
2023-02-09T00:38:00.004Z,24.04
2023-02-09T00:40:26.315Z,24.01
2023-02-09T00:42:52.972Z,23.94
2023-02-09T00:45:19.313Z,23.93
2023-02-09T00:47:45.637Z,23.92
2023-02-09T00:50:11.956Z,23.88
2023-02-09T00:52:38.273Z,23.85
2023-02-09T00:55:04.698Z,23.81
2023-02-09T00:57:31.056Z,23.80
2023-02-09T00:59:57.382Z,23.78
2023-02-09T01:02:23.696Z,23.79
2023-02-09T01:04:50.097Z,23.77
2023-02-09T01:07:16.424Z,23.77
2023-02-09T01:09:42.766Z,23.71
2023-02-09T01:12:09.094Z,23.67
2023-02-09T01:14:35.445Z,23.63
2023-02-09T01:17:01.886Z,23.62
2023-02-09T01:19:28.227Z,23.57
2023-02-09T01:21:54.544Z,23.53
2023-02-09T01:24:20.859Z,23.47
2023-02-09T01:26:47.167Z,23.48
2023-02-09T01:29:14.073Z,23.43
2023-02-09T01:31:40.734Z,23.39
2023-02-09T01:34:07.205Z,23.37
2023-02-09T01:36:33.538Z,23.33
2023-02-09T01:39:00.321Z,23.30
2023-02-09T01:41:26.730Z,23.28
2023-02-09T01:43:57.352Z,23.25
2023-02-09T01:46:24.125Z,23.21
2023-02-09T01:48:51.297Z,23.20
2023-02-09T01:51:17.614Z,23.15
2023-02-09T01:53:44.500Z,23.08
2023-02-09T01:56:16.783Z,23.07
2023-02-09T01:58:43.242Z,23.09
2023-02-09T02:01:09.603Z,23.08
2023-02-09T02:03:35.930Z,23.07
2023-02-09T02:06:03.691Z,23.03
2023-02-09T02:08:46.878Z,23.01
2023-02-09T02:11:13.193Z,22.98
2023-02-09T02:13:39.545Z,22.97
2023-02-09T02:16:24.734Z,22.93
2023-02-09T02:22:42.704Z,22.88
2023-02-09T02:25:27.513Z,22.85
2023-02-09T02:28:08.994Z,22.81
2023-02-09T02:30:38.669Z,22.76
2023-02-09T02:33:14.224Z,22.73
2023-02-09T02:35:44.547Z,22.69
2023-02-09T02:38:16.219Z,22.64
2023-02-09T02:40:45.867Z,22.63
2023-02-09T02:43:22.988Z,22.60
2023-02-09T02:45:53.845Z,22.57
2023-02-09T02:48:32.969Z,22.54
2023-02-09T02:51:00.346Z,22.50
2023-02-09T02:53:28.087Z,22.46
2023-02-09T02:55:54.824Z,22.44
2023-02-09T02:58:21.375Z,22.42
2023-02-09T03:00:48.865Z,22.38
2023-02-09T03:03:19.631Z,22.36
2023-02-09T03:05:45.926Z,22.35
2023-02-09T03:08:12.219Z,22.37
2023-02-09T03:10:39.241Z,22.41
2023-02-09T03:13:08.509Z,22.46
2023-02-09T03:15:40.269Z,22.45
2023-02-09T03:18:21.308Z,22.39
2023-02-09T03:20:47.702Z,22.36
2023-02-09T03:23:16.566Z,22.33
2023-02-09T03:25:43.798Z,22.31
2023-02-09T03:28:30.373Z,22.31
2023-02-09T03:30:57.080Z,22.30
2023-02-09T03:33:24.424Z,22.18
2023-02-09T03:35:51.946Z,22.17
2023-02-09T03:38:18.267Z,22.18
2023-02-09T03:40:44.831Z,22.17
2023-02-09T03:43:11.430Z,22.19
2023-02-09T03:45:38.019Z,22.20
2023-02-09T03:48:05.323Z,22.17
2023-02-09T03:50:32.289Z,22.14
2023-02-09T03:52:59.608Z,22.14
2023-02-09T03:55:25.935Z,22.15
2023-02-09T03:57:52.245Z,22.12
2023-02-09T04:00:18.647Z,22.11
2023-02-09T04:02:44.998Z,22.04
2023-02-09T04:05:11.777Z,22.01
2023-02-09T04:07:38.341Z,21.99
2023-02-09T04:10:05.308Z,21.97
2023-02-09T04:12:31.702Z,21.98
2023-02-09T04:14:58.012Z,22.00
2023-02-09T04:17:24.333Z,21.97
2023-02-09T04:19:50.644Z,21.94
2023-02-09T04:22:16.957Z,21.92
2023-02-09T04:24:43.266Z,21.87
2023-02-09T04:27:09.575Z,21.85
2023-02-09T04:29:35.903Z,21.83
2023-02-09T04:32:02.341Z,21.73
2023-02-09T04:34:28.670Z,21.67
2023-02-09T04:36:55.013Z,21.67
2023-02-09T04:39:21.339Z,21.67
2023-02-09T04:41:47.657Z,21.58
2023-02-09T04:44:14.060Z,21.51
2023-02-09T04:46:40.673Z,21.52
2023-02-09T04:49:06.983Z,21.55
2023-02-09T04:51:33.305Z,21.54
2023-02-09T04:53:59.623Z,21.52
2023-02-09T04:56:25.938Z,21.51
2023-02-09T04:59:10.736Z,21.51
2023-02-09T05:01:37.064Z,21.51
2023-02-09T05:04:03.408Z,21.50
2023-02-09T05:06:29.734Z,21.48
2023-02-09T05:08:56.047Z,21.47
2023-02-09T05:11:24.693Z,21.47
2023-02-09T05:13:51.785Z,21.43
2023-02-09T05:16:18.220Z,21.40
2023-02-09T05:18:44.623Z,21.40
2023-02-09T05:21:10.969Z,21.39
2023-02-09T05:23:37.280Z,21.34
2023-02-09T05:26:03.932Z,21.33
2023-02-09T05:28:30.285Z,21.33
2023-02-09T05:30:56.737Z,21.35
2023-02-09T05:33:23.365Z,21.33
2023-02-09T05:35:52.729Z,21.34
2023-02-09T05:38:19.063Z,21.32
2023-02-09T05:40:45.522Z,21.31
2023-02-09T05:43:11.873Z,21.29
2023-02-09T05:45:38.229Z,21.27
2023-02-09T05:48:04.546Z,21.26
2023-02-09T05:50:30.846Z,21.26
2023-02-09T05:53:00.100Z,21.25
2023-02-09T05:55:26.439Z,21.26
2023-02-09T05:57:52.751Z,21.23
2023-02-09T06:00:19.236Z,21.24
2023-02-09T06:02:45.638Z,21.18
2023-02-09T06:05:11.989Z,21.16
2023-02-09T06:07:38.455Z,21.14
2023-02-09T06:10:04.810Z,21.13
2023-02-09T06:12:31.126Z,21.12
2023-02-09T06:14:57.428Z,21.10
2023-02-09T06:17:23.838Z,21.07
2023-02-09T06:19:50.150Z,21.08
2023-02-09T06:22:16.455Z,21.11
2023-02-09T06:24:42.776Z,21.10
2023-02-09T06:27:09.111Z,21.09
2023-02-09T06:29:35.702Z,21.07
2023-02-09T06:32:02.182Z,21.05
2023-02-09T06:34:28.636Z,21.02
2023-02-09T06:36:54.967Z,20.96
2023-02-09T06:39:21.282Z,20.95
2023-02-09T06:41:47.607Z,20.92
2023-02-09T06:44:14.068Z,20.90
2023-02-09T06:46:40.644Z,20.93
2023-02-09T06:49:07.011Z,20.98
2023-02-09T06:51:33.563Z,20.99
2023-02-09T06:53:59.933Z,20.96
2023-02-09T06:56:26.253Z,20.97
2023-02-09T06:58:52.661Z,20.93
2023-02-09T07:01:19.040Z,20.93
2023-02-09T07:03:45.428Z,20.91
2023-02-09T07:06:12.566Z,20.89
2023-02-09T07:08:39.093Z,20.88
2023-02-09T07:11:06.081Z,20.88
2023-02-09T07:13:32.763Z,20.83
2023-02-09T07:15:59.459Z,20.88
2023-02-09T07:18:25.845Z,20.87
2023-02-09T07:20:55.984Z,20.87
2023-02-09T07:23:22.325Z,20.88
2023-02-09T07:25:48.817Z,20.88
2023-02-09T07:28:15.204Z,20.91
2023-02-09T07:30:42.061Z,20.93
2023-02-09T07:33:08.583Z,20.95
2023-02-09T07:35:35.034Z,20.95
2023-02-09T07:38:01.363Z,20.91
2023-02-09T07:40:27.898Z,20.90
2023-02-09T07:42:54.235Z,20.90
2023-02-09T07:45:20.536Z,20.90
2023-02-09T07:47:47.122Z,20.91
2023-02-09T07:50:13.444Z,20.91
2023-02-09T07:52:39.990Z,20.90
2023-02-09T07:55:06.503Z,20.96
2023-02-09T07:57:32.967Z,21.00
2023-02-09T07:59:59.297Z,20.97
2023-02-09T08:02:26.756Z,21.01
2023-02-09T08:04:53.118Z,21.03
2023-02-09T08:07:19.460Z,21.08
2023-02-09T08:09:46.514Z,21.12
2023-02-09T08:12:12.890Z,21.11
2023-02-09T08:14:44.235Z,21.13
2023-02-09T08:17:20.752Z,21.17
2023-02-09T08:19:51.621Z,21.20
2023-02-09T08:22:17.993Z,21.24
2023-02-09T08:24:44.301Z,21.24
2023-02-09T08:27:10.769Z,21.29
2023-02-09T08:29:37.115Z,21.35
2023-02-09T08:32:03.493Z,21.32
2023-02-09T08:34:30.096Z,21.31
2023-02-09T08:36:56.425Z,21.33
2023-02-09T08:39:22.747Z,21.41
2023-02-09T08:41:49.171Z,21.43
2023-02-09T08:44:15.622Z,21.54
2023-02-09T08:46:42.111Z,21.59
2023-02-09T08:49:08.514Z,21.62
2023-02-09T08:51:34.880Z,21.58
2023-02-09T08:54:01.209Z,21.60
2023-02-09T08:56:27.522Z,21.48
2023-02-09T08:58:53.876Z,21.52
2023-02-09T09:01:20.241Z,21.58
2023-02-09T09:03:46.725Z,21.56
2023-02-09T09:06:13.175Z,21.57
2023-02-09T09:08:39.598Z,21.58
2023-02-09T09:11:12.876Z,21.56
2023-02-09T09:13:39.862Z,21.56
2023-02-09T09:16:06.615Z,21.56
2023-02-09T09:18:33.050Z,21.54
2023-02-09T09:20:59.363Z,21.46
2023-02-09T09:23:25.752Z,21.54
2023-02-09T09:25:52.113Z,21.64
2023-02-09T09:28:18.506Z,21.64
2023-02-09T09:30:44.898Z,21.60
2023-02-09T09:33:11.325Z,21.65
2023-02-09T09:35:37.807Z,21.68
2023-02-09T09:38:04.662Z,21.65
2023-02-09T09:40:31.701Z,21.55
2023-02-09T09:42:58.486Z,21.64
2023-02-09T09:45:25.867Z,21.73
2023-02-09T09:47:52.253Z,21.77
2023-02-09T09:50:20.534Z,21.80
2023-02-09T09:52:51.433Z,21.77
2023-02-09T09:55:22.360Z,21.78
2023-02-09T09:57:48.701Z,21.74
2023-02-09T10:00:19.302Z,21.79
2023-02-09T10:02:45.693Z,21.78
2023-02-09T10:05:11.920Z,21.78
2023-02-09T10:07:38.245Z,21.80
2023-02-09T10:10:27.117Z,21.62
2023-02-09T10:12:53.458Z,21.67
2023-02-09T10:15:25.862Z,21.79
2023-02-09T10:17:52.264Z,21.80
2023-02-09T10:20:18.640Z,21.77
2023-02-09T10:22:45.769Z,21.71
2023-02-09T10:25:30.880Z,21.79
2023-02-09T10:27:57.256Z,21.88
2023-02-09T10:30:27.122Z,21.92
2023-02-09T10:32:53.527Z,21.96
2023-02-09T10:35:24.600Z,21.98
2023-02-09T10:37:55.141Z,22.03
2023-02-09T10:40:26.192Z,22.03
2023-02-09T10:42:56.174Z,22.04
2023-02-09T10:45:27.260Z,22.05
2023-02-09T10:47:57.713Z,22.07
2023-02-09T10:50:24.030Z,22.07
2023-02-09T10:52:55.558Z,22.14
2023-02-09T10:55:26.099Z,22.19
2023-02-09T10:57:52.639Z,22.28
2023-02-09T11:00:18.890Z,22.22
2023-02-09T11:02:48.273Z,22.30
2023-02-09T11:05:20.607Z,22.33
2023-02-09T11:08:05.599Z,22.39
2023-02-09T11:10:32.176Z,22.45
2023-02-09T11:12:58.599Z,22.45
2023-02-09T11:15:28.312Z,22.40
2023-02-09T11:17:55.592Z,22.39
2023-02-09T11:20:33.295Z,22.41
2023-02-09T11:23:03.142Z,22.42
2023-02-09T11:25:34.060Z,22.42
2023-02-09T11:28:12.632Z,22.41
2023-02-09T11:30:42.067Z,22.43
2023-02-09T11:33:34.737Z,22.45
2023-02-09T11:36:08.947Z,22.45
2023-02-09T11:38:37.016Z,22.43
2023-02-09T11:41:23.327Z,22.43
2023-02-09T11:43:49.640Z,22.43
2023-02-09T11:46:17.071Z,22.45
2023-02-09T11:48:44.642Z,22.47
2023-02-09T11:51:14.992Z,22.48
2023-02-09T11:53:47.019Z,22.45
2023-02-09T11:56:17.124Z,22.44
2023-02-09T11:59:09.839Z,22.42
2023-02-09T12:01:44.076Z,22.42
2023-02-09T12:04:24.962Z,22.42
2023-02-09T12:06:52.489Z,22.41
2023-02-09T12:09:27.240Z,22.38
2023-02-09T12:12:08.849Z,22.38
2023-02-09T12:14:39.077Z,22.38
2023-02-09T12:17:08.363Z,22.41
2023-02-09T12:19:35.325Z,22.41
2023-02-09T12:22:20.217Z,22.41
2023-02-09T12:25:04.122Z,22.42
2023-02-09T12:27:30.676Z,22.40
2023-02-09T12:29:56.992Z,22.38
2023-02-09T12:32:24.475Z,22.38
2023-02-09T12:34:52.753Z,22.38
2023-02-09T12:37:20.119Z,22.40
2023-02-09T12:40:12.753Z,22.36
2023-02-09T12:42:40.336Z,22.33
2023-02-09T12:45:26.586Z,22.32
2023-02-09T12:48:13.265Z,22.28
2023-02-09T12:50:42.624Z,22.29
2023-02-09T12:53:30.969Z,22.27
2023-02-09T12:55:57.195Z,22.27
2023-02-09T12:58:33.514Z,22.28
2023-02-09T13:00:59.875Z,22.28
2023-02-09T13:03:26.340Z,22.34
2023-02-09T13:05:54.160Z,22.34
2023-02-09T13:08:22.409Z,22.34
2023-02-09T13:11:17.674Z,22.38
2023-02-09T13:13:47.085Z,22.35
2023-02-09T13:16:22.480Z,22.33
2023-02-09T13:19:00.724Z,22.32
2023-02-09T13:21:39.216Z,22.32
2023-02-09T13:24:08.472Z,22.27
2023-02-09T13:26:35.688Z,22.27
2023-02-09T13:29:19.749Z,22.27
2023-02-09T13:31:50.094Z,22.26
2023-02-09T13:34:18.684Z,22.24
2023-02-09T13:36:47.250Z,22.21
2023-02-09T13:39:21.727Z,22.22
2023-02-09T13:41:49.862Z,22.24
2023-02-09T13:44:23.241Z,22.22
2023-02-09T13:46:53.382Z,22.24
2023-02-09T13:49:21.787Z,22.16
2023-02-09T13:52:07.016Z,22.14
2023-02-09T13:54:33.359Z,22.09
2023-02-09T13:57:00.269Z,22.17
2023-02-09T13:59:26.609Z,22.15
2023-02-09T14:01:53.402Z,22.13
2023-02-09T14:04:20.956Z,22.12
2023-02-09T14:06:47.740Z,22.11
2023-02-09T14:09:15.708Z,22.09
2023-02-09T14:11:44.033Z,22.03
2023-02-09T14:14:10.298Z,22.00
2023-02-09T14:16:44.673Z,21.93
2023-02-09T14:19:28.028Z,21.88
2023-02-09T14:21:54.491Z,21.83
2023-02-09T14:24:24.489Z,21.78
2023-02-09T14:26:53.831Z,21.77
2023-02-09T14:29:26.959Z,21.74
2023-02-09T14:31:54.533Z,21.70
2023-02-09T14:34:25.218Z,21.68
2023-02-09T14:36:52.597Z,21.66
2023-02-09T14:39:21.870Z,21.64
2023-02-09T14:41:57.622Z,21.61
2023-02-09T14:44:24.004Z,21.60
2023-02-09T14:46:57.152Z,21.54
2023-02-09T14:49:23.597Z,21.56
2023-02-09T14:51:50.749Z,21.55
2023-02-09T14:54:18.562Z,21.55
2023-02-09T14:56:44.911Z,21.53
2023-02-09T14:59:14.579Z,21.51
2023-02-09T15:01:40.940Z,21.50
2023-02-09T15:04:07.423Z,21.46
2023-02-09T15:06:35.470Z,21.43
2023-02-09T15:09:02.308Z,21.42
2023-02-09T15:11:47.308Z,21.37
2023-02-09T15:14:13.870Z,21.34
2023-02-09T15:16:40.249Z,21.33
2023-02-09T15:19:16.986Z,21.33
2023-02-09T15:21:43.317Z,21.32
2023-02-09T15:24:09.631Z,21.32
2023-02-09T15:26:35.983Z,21.29
2023-02-09T15:29:02.355Z,21.28
2023-02-09T15:31:28.760Z,21.24
2023-02-09T15:33:55.195Z,21.24
2023-02-09T15:36:21.517Z,21.28
2023-02-09T15:38:48.071Z,21.27
2023-02-09T15:41:35.623Z,21.39
2023-02-09T15:44:30.344Z,21.50
2023-02-09T15:47:15.436Z,21.61
2023-02-09T15:49:41.744Z,21.78
2023-02-09T15:52:08.073Z,21.95
2023-02-09T15:54:34.426Z,22.11
2023-02-09T15:57:00.757Z,22.19
2023-02-09T15:59:27.086Z,22.22
2023-02-09T16:01:53.726Z,22.27
2023-02-09T16:04:20.085Z,22.25
2023-02-09T16:06:48.684Z,22.37
2023-02-09T16:09:18.966Z,22.57
2023-02-09T16:11:45.289Z,22.81
2023-02-09T16:14:21.506Z,22.98
2023-02-09T16:16:47.914Z,23.01
2023-02-09T16:19:14.451Z,22.95
2023-02-09T16:21:44.000Z,22.90
2023-02-09T16:24:14.876Z,23.04
2023-02-09T16:26:41.244Z,23.15
2023-02-09T16:29:10.903Z,23.21
2023-02-09T16:31:37.275Z,23.35
2023-02-09T16:34:03.686Z,23.47
2023-02-09T16:36:30.345Z,23.48
2023-02-09T16:38:56.788Z,23.54
2023-02-09T16:41:41.885Z,23.63
2023-02-09T16:44:13.856Z,23.60
2023-02-09T16:46:40.200Z,23.65
2023-02-09T16:49:06.520Z,23.63
2023-02-09T16:51:33.829Z,23.67
2023-02-09T16:54:00.150Z,23.68
2023-02-09T16:56:27.480Z,23.73
2023-02-09T16:58:53.812Z,23.78
2023-02-09T17:01:20.655Z,23.80
2023-02-09T17:03:48.024Z,23.80
2023-02-09T17:06:21.641Z,23.87
2023-02-09T17:08:48.066Z,23.88
2023-02-09T17:11:18.404Z,23.82
2023-02-09T17:13:44.721Z,23.82
2023-02-09T17:16:15.718Z,23.80
2023-02-09T17:18:42.328Z,23.79
2023-02-09T17:21:10.139Z,23.87
2023-02-09T17:23:36.948Z,23.84
2023-02-09T17:26:03.397Z,23.75
2023-02-09T17:28:29.845Z,23.80
2023-02-09T17:30:59.757Z,23.83
2023-02-09T17:33:27.161Z,23.84
2023-02-09T17:36:23.594Z,23.88
2023-02-09T17:38:44.151Z,23.97
2023-02-09T17:41:17.628Z,23.97
2023-02-09T17:43:44.054Z,23.95
2023-02-09T17:46:13.621Z,24.06
2023-02-09T17:48:40.242Z,24.05
2023-02-09T17:51:09.538Z,24.05
2023-02-09T17:53:35.900Z,24.04
2023-02-09T17:56:02.541Z,23.99
2023-02-09T17:58:28.931Z,24.09
2023-02-09T18:00:56.078Z,24.13
2023-02-09T18:03:23.010Z,24.14
2023-02-09T18:05:55.894Z,24.03
2023-02-09T18:08:22.447Z,24.03
2023-02-09T18:10:48.890Z,24.01
2023-02-09T18:13:15.764Z,24.08
2023-02-09T18:15:43.144Z,24.12
2023-02-09T18:18:09.472Z,24.09
2023-02-09T18:20:36.087Z,24.12
2023-02-09T18:23:03.056Z,24.07
2023-02-09T18:25:36.087Z,24.03
2023-02-09T18:28:02.616Z,23.99
2023-02-09T18:30:30.259Z,23.90
2023-02-09T18:32:56.897Z,23.94
2023-02-09T18:35:36.386Z,23.93
2023-02-09T18:38:03.064Z,23.93
2023-02-09T18:40:29.492Z,23.94
2023-02-09T18:42:55.809Z,23.81
2023-02-09T18:45:22.125Z,23.67
2023-02-09T18:47:48.743Z,23.48
2023-02-09T18:50:16.006Z,23.59
2023-02-09T18:52:49.294Z,23.59
2023-02-09T18:55:15.661Z,23.69
2023-02-09T18:57:42.247Z,23.66
2023-02-09T19:00:09.220Z,23.65
2023-02-09T19:02:35.682Z,23.64
2023-02-09T19:05:04.264Z,23.62
2023-02-09T19:07:30.975Z,23.62
2023-02-09T19:09:57.284Z,23.58
2023-02-09T19:12:23.655Z,23.69
2023-02-09T19:14:50.087Z,23.61
2023-02-09T19:17:16.978Z,23.61
2023-02-09T19:19:44.439Z,23.80
2023-02-09T19:22:12.987Z,23.94
2023-02-09T19:24:39.288Z,24.02
2023-02-09T19:27:06.800Z,24.02
2023-02-09T19:29:33.431Z,24.09
2023-02-09T19:31:59.751Z,24.13
2023-02-09T19:34:29.852Z,24.26
2023-02-09T19:36:56.184Z,24.31
2023-02-09T19:39:22.500Z,24.43
2023-02-09T19:41:49.141Z,24.40
2023-02-09T19:44:15.502Z,24.34
2023-02-09T19:46:42.617Z,24.34
2023-02-09T19:49:09.169Z,24.35
2023-02-09T19:51:35.599Z,24.39
2023-02-09T19:54:02.320Z,24.55
2023-02-09T19:56:28.686Z,24.58
2023-02-09T19:58:54.991Z,24.58
2023-02-09T20:01:21.669Z,24.59
2023-02-09T20:03:49.389Z,24.61
2023-02-09T20:06:16.029Z,24.66
2023-02-09T20:08:42.624Z,24.52
2023-02-09T20:11:10.253Z,24.50
2023-02-09T20:13:36.666Z,24.48
2023-02-09T20:16:09.450Z,24.50
2023-02-09T20:18:35.810Z,24.52
2023-02-09T20:21:02.255Z,24.48
2023-02-09T20:23:28.592Z,24.49
2023-02-09T20:25:54.907Z,24.44
2023-02-09T20:28:21.267Z,24.45
2023-02-09T20:30:48.242Z,24.45
2023-02-09T20:33:14.840Z,24.48
2023-02-09T20:35:41.572Z,24.48
2023-02-09T20:38:07.916Z,24.47
2023-02-09T20:40:34.328Z,24.46
2023-02-09T20:43:19.095Z,24.45
2023-02-09T20:46:04.324Z,24.40
2023-02-09T20:48:30.658Z,24.42
2023-02-09T20:50:56.977Z,24.35
2023-02-09T20:53:23.323Z,24.28
2023-02-09T20:55:49.676Z,24.27
2023-02-09T20:58:16.007Z,24.23
2023-02-09T21:00:42.560Z,24.33
2023-02-09T21:03:08.970Z,24.44
2023-02-09T21:05:35.295Z,24.37
2023-02-09T21:08:04.292Z,24.39
2023-02-09T21:10:35.336Z,24.36
2023-02-09T21:13:05.535Z,24.21
2023-02-09T21:15:31.975Z,24.12
2023-02-09T21:17:58.297Z,24.09
2023-02-09T21:20:24.624Z,24.08
2023-02-09T21:22:50.961Z,24.06
2023-02-09T21:25:18.444Z,24.09
2023-02-09T21:27:44.770Z,24.33
2023-02-09T21:30:11.396Z,24.46
2023-02-09T21:32:38.458Z,24.51
2023-02-09T21:35:09.918Z,24.06
2023-02-09T21:37:37.756Z,23.88
2023-02-09T21:40:05.196Z,24.03
2023-02-09T21:42:32.690Z,24.30
2023-02-09T21:44:59.480Z,24.40
2023-02-09T21:47:26.557Z,24.46
2023-02-09T21:49:52.960Z,24.50
2023-02-09T21:52:19.307Z,24.49
2023-02-09T21:54:45.635Z,24.48
2023-02-09T21:57:11.978Z,24.46
2023-02-09T21:59:38.298Z,24.48
2023-02-09T22:02:04.628Z,24.48
2023-02-09T22:04:31.004Z,24.48
2023-02-09T22:06:57.424Z,24.48
2023-02-09T22:09:25.242Z,24.46
2023-02-09T22:11:51.600Z,24.48
2023-02-09T22:14:17.915Z,24.50
2023-02-09T22:16:44.337Z,24.49
2023-02-09T22:19:10.735Z,24.47
2023-02-09T22:21:37.052Z,24.46
2023-02-09T22:24:03.366Z,24.35
2023-02-09T22:26:29.684Z,24.41
2023-02-09T22:28:55.994Z,24.41
2023-02-09T22:31:22.412Z,24.41
2023-02-09T22:33:53.093Z,24.39
2023-02-09T22:36:19.414Z,24.37
2023-02-09T22:38:45.747Z,24.33
2023-02-09T22:41:21.274Z,24.32
2023-02-09T22:43:48.852Z,24.31
2023-02-09T22:46:15.182Z,24.30
2023-02-09T22:48:41.504Z,24.32
2023-02-09T22:51:07.941Z,24.34
2023-02-09T22:53:34.303Z,24.25
2023-02-09T22:56:03.859Z,24.11
2023-02-09T22:58:30.395Z,23.78
2023-02-09T23:00:56.934Z,23.63
2023-02-09T23:03:23.237Z,23.52
2023-02-09T23:05:49.731Z,23.48
2023-02-09T23:08:16.124Z,23.47
2023-02-09T23:10:42.438Z,23.47
2023-02-09T23:13:08.779Z,23.46
2023-02-09T23:15:35.135Z,23.45
2023-02-09T23:18:01.517Z,23.41
2023-02-09T23:20:27.818Z,23.40
2023-02-09T23:22:56.509Z,23.39
2023-02-09T23:25:24.304Z,23.38
2023-02-09T23:27:50.642Z,23.33
2023-02-09T23:30:17.016Z,23.32
2023-02-09T23:32:43.588Z,23.31
2023-02-09T23:35:09.911Z,23.30
2023-02-09T23:40:04.560Z,23.28
2023-02-09T23:42:30.867Z,23.25
2023-02-09T23:44:57.272Z,23.23
2023-02-09T23:47:23.592Z,23.20
2023-02-09T23:49:50.584Z,23.19
2023-02-09T23:52:16.906Z,23.18
2023-02-09T23:54:43.228Z,23.16
2023-02-09T23:57:09.537Z,23.09
2023-02-09T23:59:35.853Z,23.05
